createdAt,value
2023-04-23T00:00:00.360Z,6.13
2023-04-23T00:01:05.738Z,6.13
2023-04-23T00:02:08.267Z,6.10
2023-04-23T00:03:12.984Z,7.32
2023-04-23T00:04:19.464Z,6.18
2023-04-23T00:05:23.261Z,7.15
2023-04-23T00:06:27.390Z,6.85
2023-04-23T00:07:29.506Z,7.15
2023-04-23T00:08:33.005Z,7.03
2023-04-23T00:09:35.886Z,6.05
2023-04-23T00:10:38.155Z,7.15
2023-04-23T00:11:40.077Z,6.68
2023-04-23T00:12:42.782Z,8.10
2023-04-23T00:13:44.854Z,6.82
2023-04-23T00:14:46.867Z,7.38
2023-04-23T00:15:48.960Z,8.20
2023-04-23T00:16:51.048Z,8.07
2023-04-23T00:17:52.775Z,7.13
2023-04-23T00:18:54.513Z,7.95
2023-04-23T00:19:56.205Z,7.68
2023-04-23T00:20:58.200Z,8.20
2023-04-23T00:21:59.996Z,8.35
2023-04-23T00:23:01.794Z,8.43
2023-04-23T00:24:03.655Z,8.30
2023-04-23T00:25:05.835Z,7.97
2023-04-23T00:26:07.567Z,8.75
2023-04-23T00:27:09.695Z,8.15
2023-04-23T00:28:11.373Z,8.23
2023-04-23T00:29:13.111Z,8.77
2023-04-23T00:30:15.090Z,8.70
2023-04-23T00:31:16.897Z,8.43
2023-04-23T00:32:18.940Z,8.20
2023-04-23T00:33:20.783Z,8.23
2023-04-23T00:34:22.496Z,8.20
2023-04-23T00:35:24.205Z,8.88
2023-04-23T00:36:26.492Z,8.00
2023-04-23T00:37:28.219Z,8.43
2023-04-23T00:38:29.987Z,7.60
2023-04-23T00:39:31.715Z,6.75
2023-04-23T00:40:33.608Z,6.40
2023-04-23T00:41:35.686Z,6.65
2023-04-23T00:42:38.821Z,6.53
2023-04-23T00:43:40.954Z,6.50
2023-04-23T00:44:43.209Z,6.38
2023-04-23T00:45:45.576Z,6.25
2023-04-23T00:46:47.561Z,5.75
2023-04-23T00:47:50.138Z,5.80
2023-04-23T00:48:53.348Z,5.95
2023-04-23T00:49:56.263Z,5.93
2023-04-23T00:51:04.489Z,6.07
2023-04-23T00:52:06.738Z,5.80
2023-04-23T00:53:08.950Z,6.95
2023-04-23T00:54:10.659Z,6.20
2023-04-23T00:55:12.602Z,6.40
2023-04-23T00:56:14.916Z,5.82
2023-04-23T00:57:17.362Z,6.00
2023-04-23T00:58:19.326Z,6.03
2023-04-23T00:59:21.311Z,6.07
2023-04-23T01:00:23.338Z,5.88
2023-04-23T01:01:26.242Z,5.60
2023-04-23T01:02:31.361Z,5.78
2023-04-23T01:03:36.833Z,6.28
2023-04-23T01:04:40.083Z,6.65
2023-04-23T01:05:43.002Z,6.38
2023-04-23T01:06:47.346Z,6.03
2023-04-23T01:07:49.398Z,5.97
2023-04-23T01:08:51.423Z,6.43
2023-04-23T01:09:53.392Z,6.13
2023-04-23T01:10:55.335Z,6.60
2023-04-23T01:11:58.262Z,6.95
2023-04-23T01:13:00.310Z,6.20
2023-04-23T01:14:03.435Z,6.38
2023-04-23T01:15:06.236Z,6.38
2023-04-23T01:16:08.505Z,5.97
2023-04-23T01:17:12.390Z,6.55
2023-04-23T01:18:14.985Z,6.68
2023-04-23T01:19:16.742Z,6.18
2023-04-23T01:20:18.543Z,5.95
2023-04-23T01:21:20.551Z,7.00
2023-04-23T01:22:22.542Z,6.15
2023-04-23T01:23:24.413Z,6.60
2023-04-23T01:24:26.359Z,6.50
2023-04-23T01:25:28.177Z,7.25
2023-04-23T01:26:30.098Z,6.88
2023-04-23T01:27:33.378Z,6.88
2023-04-23T01:28:35.474Z,7.35
2023-04-23T01:29:38.756Z,7.00
2023-04-23T01:30:43.457Z,7.15
2023-04-23T01:31:45.311Z,7.00
2023-04-23T01:32:47.561Z,7.80
2023-04-23T01:33:52.094Z,7.43
2023-04-23T01:34:56.828Z,7.35
2023-04-23T01:35:59.477Z,7.13
2023-04-23T01:37:03.528Z,7.45
2023-04-23T01:38:07.971Z,7.60
2023-04-23T01:39:10.061Z,8.07
2023-04-23T01:40:12.449Z,8.07
2023-04-23T01:41:14.282Z,7.85
2023-04-23T01:42:17.066Z,7.65
2023-04-23T01:43:19.337Z,7.65
2023-04-23T01:44:21.352Z,8.27
2023-04-23T01:45:23.310Z,7.85
2023-04-23T01:46:25.774Z,8.30
2023-04-23T01:47:27.713Z,8.30
2023-04-23T01:48:29.907Z,9.52
2023-04-23T01:49:31.887Z,8.00
2023-04-23T01:50:33.854Z,8.02
2023-04-23T01:51:35.775Z,8.07
2023-04-23T01:52:37.608Z,8.95
2023-04-23T01:53:39.338Z,9.30
2023-04-23T01:54:41.278Z,9.63
2023-04-23T01:55:47.040Z,8.57
2023-04-23T01:56:48.917Z,9.95
2023-04-23T01:57:51.340Z,9.35
2023-04-23T01:58:53.190Z,9.40
2023-04-23T02:00:08.730Z,9.50
2023-04-23T02:01:10.729Z,9.98
2023-04-23T02:02:14.067Z,9.38
2023-04-23T02:03:16.306Z,9.20
2023-04-23T02:04:18.660Z,9.68
2023-04-23T02:05:21.478Z,9.02
2023-04-23T02:06:23.265Z,10.13
2023-04-23T02:07:24.999Z,9.27
2023-04-23T02:08:27.699Z,9.48
2023-04-23T02:09:29.641Z,9.40
2023-04-23T02:10:31.913Z,9.18
2023-04-23T02:11:33.917Z,9.00
2023-04-23T02:12:37.442Z,9.27
2023-04-23T02:13:39.247Z,9.40
2023-04-23T02:14:41.769Z,9.50
2023-04-23T02:15:43.870Z,9.60
2023-04-23T02:16:45.662Z,9.05
2023-04-23T02:17:47.436Z,9.80
2023-04-23T02:18:49.146Z,8.70
2023-04-23T02:19:50.839Z,9.02
2023-04-23T02:20:52.606Z,9.13
2023-04-23T02:21:54.356Z,9.05
2023-04-23T02:22:56.899Z,8.73
2023-04-23T02:23:58.753Z,8.60
2023-04-23T02:25:00.448Z,8.18
2023-04-23T02:26:02.265Z,9.55
2023-04-23T02:27:04.694Z,9.65
2023-04-23T02:28:07.800Z,8.93
2023-04-23T02:29:09.505Z,9.48
2023-04-23T02:30:11.840Z,8.57
2023-04-23T02:31:13.954Z,9.18
2023-04-23T02:32:15.888Z,8.15
2023-04-23T02:33:17.739Z,9.23
2023-04-23T02:34:19.464Z,8.88
2023-04-23T02:35:21.375Z,8.98
2023-04-23T02:36:23.107Z,9.13
2023-04-23T02:37:24.853Z,8.35
2023-04-23T02:38:26.622Z,7.53
2023-04-23T02:39:28.327Z,7.32
2023-04-23T02:40:30.161Z,7.68
2023-04-23T02:41:32.012Z,8.00
2023-04-23T02:42:33.916Z,7.25
2023-04-23T02:43:35.825Z,7.45
2023-04-23T02:44:37.543Z,7.88
2023-04-23T02:45:39.299Z,6.80
2023-04-23T02:46:41.033Z,7.40
2023-04-23T02:47:42.864Z,7.30
2023-04-23T02:48:44.621Z,7.53
2023-04-23T02:49:46.376Z,6.97
2023-04-23T02:50:48.157Z,7.05
2023-04-23T02:51:49.898Z,7.25
2023-04-23T02:52:51.719Z,7.78
2023-04-23T02:53:53.528Z,7.28
2023-04-23T02:54:55.220Z,6.40
2023-04-23T02:55:57.031Z,6.72
2023-04-23T02:56:59.104Z,6.55
2023-04-23T02:58:00.830Z,7.40
2023-04-23T02:59:02.591Z,6.05
2023-04-23T03:00:07.294Z,6.20
2023-04-23T03:01:09.163Z,6.05
2023-04-23T03:02:11.221Z,6.63
2023-04-23T03:03:13.129Z,6.18
2023-04-23T03:04:14.926Z,6.15
2023-04-23T03:05:16.793Z,6.93
2023-04-23T03:06:18.737Z,6.18
2023-04-23T03:07:20.785Z,6.60
2023-04-23T03:08:22.621Z,6.78
2023-04-23T03:09:24.376Z,6.43
2023-04-23T03:10:26.072Z,6.90
2023-04-23T03:11:27.792Z,7.43
2023-04-23T03:12:29.489Z,7.07
2023-04-23T03:13:31.239Z,6.35
2023-04-23T03:14:36.055Z,7.50
2023-04-23T03:15:37.748Z,7.13
2023-04-23T03:16:39.503Z,7.20
2023-04-23T03:17:41.261Z,6.78
2023-04-23T03:18:42.987Z,8.43
2023-04-23T03:19:44.716Z,6.60
2023-04-23T03:20:46.843Z,7.55
2023-04-23T03:21:48.623Z,7.38
2023-04-23T03:22:50.381Z,6.50
2023-04-23T03:23:52.120Z,6.43
2023-04-23T03:24:53.826Z,7.55
2023-04-23T03:25:55.629Z,7.80
2023-04-23T03:26:58.357Z,7.18
2023-04-23T03:28:00.376Z,7.57
2023-04-23T03:29:02.064Z,7.05
2023-04-23T03:30:04.313Z,6.40
2023-04-23T03:31:06.289Z,6.63
2023-04-23T03:32:07.991Z,6.50
2023-04-23T03:33:09.722Z,6.95
2023-04-23T03:34:11.481Z,7.13
2023-04-23T03:35:13.223Z,6.32
2023-04-23T03:36:15.843Z,6.05
2023-04-23T03:37:17.527Z,7.65
2023-04-23T03:38:19.218Z,7.28
2023-04-23T03:39:21.241Z,6.85
2023-04-23T03:40:23.149Z,7.00
2023-04-23T03:41:24.936Z,7.20
2023-04-23T03:42:26.870Z,7.32
2023-04-23T03:43:28.568Z,6.88
2023-04-23T03:44:30.289Z,8.00
2023-04-23T03:45:32.679Z,7.35
2023-04-23T03:46:34.414Z,7.10
2023-04-23T03:47:37.042Z,7.10
2023-04-23T03:48:38.772Z,7.50
2023-04-23T03:49:40.558Z,7.60
2023-04-23T03:50:42.254Z,7.07
2023-04-23T03:51:43.974Z,7.22
2023-04-23T03:52:45.824Z,7.18
2023-04-23T03:53:47.621Z,6.60
2023-04-23T03:54:49.293Z,6.97
2023-04-23T03:55:50.980Z,6.80
2023-04-23T03:56:52.699Z,6.55
2023-04-23T03:57:54.471Z,6.93
2023-04-23T03:58:56.159Z,6.88
2023-04-23T03:59:57.916Z,6.18
2023-04-23T04:00:59.687Z,6.75
2023-04-23T04:02:04.435Z,6.22
2023-04-23T04:03:06.353Z,5.80
2023-04-23T04:04:08.388Z,5.18
2023-04-23T04:05:13.631Z,5.47
2023-04-23T04:06:15.893Z,5.70
2023-04-23T04:07:18.378Z,7.07
2023-04-23T04:08:20.166Z,6.57
2023-04-23T04:09:22.247Z,6.18
2023-04-23T04:10:24.000Z,5.95
2023-04-23T04:11:26.579Z,6.13
2023-04-23T04:12:28.301Z,6.45
2023-04-23T04:13:30.050Z,6.55
2023-04-23T04:14:32.761Z,5.75
2023-04-23T04:15:34.451Z,5.80
2023-04-23T04:16:36.231Z,5.75
2023-04-23T04:17:38.055Z,5.57
2023-04-23T04:18:39.822Z,5.63
2023-04-23T04:19:42.963Z,5.30
2023-04-23T04:20:45.822Z,5.72
2023-04-23T04:21:47.935Z,5.30
2023-04-23T04:22:49.694Z,5.50
2023-04-23T04:23:51.424Z,5.85
2023-04-23T04:24:53.178Z,5.88
2023-04-23T04:25:56.649Z,5.80
2023-04-23T04:27:00.305Z,5.72
2023-04-23T04:28:02.146Z,6.07
2023-04-23T04:29:04.041Z,6.60
2023-04-23T04:30:06.891Z,5.18
2023-04-23T04:31:10.495Z,5.32
2023-04-23T04:32:13.902Z,5.65
2023-04-23T04:33:17.033Z,6.15
2023-04-23T04:34:18.748Z,5.45
2023-04-23T04:35:20.602Z,6.22
2023-04-23T04:36:23.166Z,5.88
2023-04-23T04:37:25.054Z,5.60
2023-04-23T04:38:26.738Z,5.28
2023-04-23T04:39:28.430Z,5.40
2023-04-23T04:40:30.741Z,5.32
2023-04-23T04:41:32.562Z,4.57
2023-04-23T04:42:34.240Z,5.68
2023-04-23T04:43:36.007Z,5.70
2023-04-23T04:44:38.338Z,5.03
2023-04-23T04:45:40.104Z,6.50
2023-04-23T04:46:42.992Z,5.22
2023-04-23T04:47:44.858Z,5.15
2023-04-23T04:48:47.545Z,5.60
2023-04-23T04:49:49.348Z,5.60
2023-04-23T04:50:51.238Z,5.50
2023-04-23T04:51:54.401Z,6.95
2023-04-23T04:52:56.106Z,5.88
2023-04-23T04:53:57.891Z,6.35
2023-04-23T04:54:59.854Z,6.60
2023-04-23T04:56:01.573Z,6.80
2023-04-23T04:57:03.551Z,6.22
2023-04-23T04:58:05.260Z,5.70
2023-04-23T04:59:06.977Z,5.68
2023-04-23T05:00:23.891Z,6.25
2023-04-23T05:01:26.831Z,5.15
2023-04-23T05:02:29.775Z,5.68
2023-04-23T05:03:32.574Z,6.32
2023-04-23T05:04:34.419Z,6.22
2023-04-23T05:05:36.199Z,6.63
2023-04-23T05:06:37.925Z,6.13
2023-04-23T05:07:39.626Z,6.65
2023-04-23T05:08:42.867Z,5.15
2023-04-23T05:09:45.227Z,5.47
2023-04-23T05:10:47.179Z,5.25
2023-04-23T05:11:49.041Z,5.80
2023-04-23T05:12:52.036Z,5.15
2023-04-23T05:13:53.825Z,5.78
2023-04-23T05:14:55.520Z,5.90
2023-04-23T05:15:57.239Z,5.60
2023-04-23T05:16:59.084Z,5.22
2023-04-23T05:18:02.985Z,6.13
2023-04-23T05:19:04.871Z,6.13
2023-04-23T05:20:10.505Z,6.50
2023-04-23T05:21:12.289Z,6.25
2023-04-23T05:22:14.980Z,6.15
2023-04-23T05:23:16.778Z,6.55
2023-04-23T05:24:18.496Z,6.43
2023-04-23T05:25:20.274Z,6.55
2023-04-23T05:26:21.979Z,6.18
2023-04-23T05:27:23.805Z,6.63
2023-04-23T05:28:26.171Z,6.63
2023-04-23T05:29:27.887Z,6.57
2023-04-23T05:30:29.858Z,6.28
2023-04-23T05:31:32.242Z,6.90
2023-04-23T05:32:34.329Z,6.78
2023-04-23T05:33:46.375Z,7.05
2023-04-23T05:34:50.765Z,7.45
2023-04-23T05:35:52.899Z,7.32
2023-04-23T05:36:54.640Z,6.78
2023-04-23T05:37:56.891Z,7.15
2023-04-23T05:38:58.618Z,6.90
2023-04-23T05:40:00.544Z,6.88
2023-04-23T05:41:02.427Z,6.40
2023-04-23T05:42:04.426Z,6.93
2023-04-23T05:43:06.300Z,6.90
2023-04-23T05:44:08.001Z,7.45
2023-04-23T05:45:10.145Z,6.88
2023-04-23T05:46:11.921Z,6.97
2023-04-23T05:47:14.383Z,7.20
2023-04-23T05:48:16.125Z,6.53
2023-04-23T05:49:17.835Z,7.40
2023-04-23T05:50:20.688Z,7.13
2023-04-23T05:51:22.456Z,7.30
2023-04-23T05:52:25.164Z,6.65
2023-04-23T05:53:28.219Z,7.30
2023-04-23T05:54:29.957Z,7.43
2023-04-23T05:55:31.730Z,7.82
2023-04-23T05:56:33.557Z,7.30
2023-04-23T05:57:37.785Z,7.22
2023-04-23T05:58:39.508Z,7.30
2023-04-23T05:59:41.332Z,7.35
2023-04-23T06:00:43.049Z,7.40
2023-04-23T06:01:44.815Z,7.15
2023-04-23T06:02:47.996Z,7.55
2023-04-23T06:03:49.962Z,7.45
2023-04-23T06:04:52.823Z,7.10
2023-04-23T06:05:54.981Z,7.20
2023-04-23T06:07:04.219Z,7.45
2023-04-23T06:08:05.968Z,7.38
2023-04-23T06:09:07.846Z,7.97
2023-04-23T06:10:09.809Z,7.80
2023-04-23T06:11:11.649Z,7.95
2023-04-23T06:12:13.364Z,8.35
2023-04-23T06:13:15.146Z,7.35
2023-04-23T06:14:17.166Z,6.90
2023-04-23T06:15:19.220Z,7.25
2023-04-23T06:16:21.007Z,6.97
2023-04-23T06:17:22.733Z,6.72
2023-04-23T06:18:24.501Z,6.50
2023-04-23T06:19:27.766Z,6.43
2023-04-23T06:20:30.194Z,6.13
2023-04-23T06:21:32.622Z,6.72
2023-04-23T06:22:34.531Z,7.70
2023-04-23T06:23:36.903Z,7.30
2023-04-23T06:24:39.241Z,6.93
2023-04-23T06:25:41.172Z,6.47
2023-04-23T06:26:42.885Z,6.43
2023-04-23T06:27:44.629Z,7.47
2023-04-23T06:28:46.944Z,7.05
2023-04-23T06:29:48.646Z,7.75
2023-04-23T06:30:50.507Z,7.45
2023-04-23T06:31:55.065Z,7.38
2023-04-23T06:32:56.845Z,7.57
2023-04-23T06:33:58.584Z,7.75
2023-04-23T06:35:01.870Z,8.18
2023-04-23T06:36:04.751Z,7.75
2023-04-23T06:37:06.481Z,9.35
2023-04-23T06:38:08.227Z,8.52
2023-04-23T06:39:10.618Z,8.20
2023-04-23T06:40:12.483Z,7.32
2023-04-23T06:41:14.347Z,7.75
2023-04-23T06:42:16.154Z,7.22
2023-04-23T06:43:17.908Z,7.05
2023-04-23T06:44:19.594Z,7.35
2023-04-23T06:45:21.892Z,7.10
2023-04-23T06:46:23.632Z,6.85
2023-04-23T06:47:25.440Z,7.70
2023-04-23T06:48:27.169Z,6.90
2023-04-23T06:49:28.870Z,6.68
2023-04-23T06:50:31.968Z,6.80
2023-04-23T06:51:34.981Z,7.57
2023-04-23T06:52:36.831Z,7.57
2023-04-23T06:53:38.799Z,7.25
2023-04-23T06:54:41.022Z,7.43
2023-04-23T06:55:42.955Z,7.10
2023-04-23T06:56:44.846Z,6.97
2023-04-23T06:57:46.565Z,7.43
2023-04-23T06:58:48.256Z,7.00
2023-04-23T06:59:50.032Z,6.65
2023-04-23T07:00:51.838Z,7.35
2023-04-23T07:01:53.601Z,6.70
2023-04-23T07:02:55.476Z,6.65
2023-04-23T07:03:57.244Z,7.07
2023-04-23T07:04:58.945Z,6.40
2023-04-23T07:06:00.721Z,6.65
2023-04-23T07:07:02.715Z,6.45
2023-04-23T07:08:04.530Z,6.60
2023-04-23T07:09:06.350Z,6.72
2023-04-23T07:10:08.990Z,6.43
2023-04-23T07:11:11.075Z,6.13
2023-04-23T07:12:12.875Z,6.32
2023-04-23T07:13:15.332Z,6.00
2023-04-23T07:14:17.153Z,6.00
2023-04-23T07:15:19.217Z,6.10
2023-04-23T07:16:22.970Z,5.82
2023-04-23T07:17:24.788Z,5.47
2023-04-23T07:18:26.500Z,5.40
2023-04-23T07:19:28.233Z,5.78
2023-04-23T07:20:29.992Z,5.85
2023-04-23T07:21:33.124Z,5.68
2023-04-23T07:22:35.167Z,5.85
2023-04-23T07:23:39.063Z,5.80
2023-04-23T07:24:41.803Z,5.55
2023-04-23T07:25:43.762Z,5.45
2023-04-23T07:26:45.769Z,5.30
2023-04-23T07:27:47.481Z,5.90
2023-04-23T07:28:52.676Z,5.47
2023-04-23T07:29:54.657Z,5.72
2023-04-23T07:30:56.808Z,6.10
2023-04-23T07:31:58.631Z,5.13
2023-04-23T07:33:01.151Z,5.07
2023-04-23T07:34:03.074Z,5.10
2023-04-23T07:35:05.361Z,5.82
2023-04-23T07:36:07.136Z,5.13
2023-04-23T07:37:08.854Z,4.90
2023-04-23T07:38:11.056Z,5.57
2023-04-23T07:39:12.880Z,4.85
2023-04-23T07:40:14.627Z,5.13
2023-04-23T07:41:16.515Z,5.88
2023-04-23T07:42:18.305Z,4.88
2023-04-23T07:43:20.017Z,5.00
2023-04-23T07:44:21.729Z,4.55
2023-04-23T07:45:23.516Z,5.47
2023-04-23T07:46:25.349Z,5.55
2023-04-23T07:47:27.269Z,5.47
2023-04-23T07:48:29.112Z,5.38
2023-04-23T07:49:31.270Z,5.15
2023-04-23T07:50:33.018Z,5.28
2023-04-23T07:51:34.781Z,6.07
2023-04-23T07:52:36.508Z,6.25
2023-04-23T07:53:38.220Z,6.32
2023-04-23T07:54:39.970Z,6.15
2023-04-23T07:55:41.693Z,5.45
2023-04-23T07:56:43.601Z,5.22
2023-04-23T07:57:45.367Z,5.97
2023-04-23T07:58:47.046Z,5.88
2023-04-23T07:59:49.030Z,5.20
2023-04-23T08:00:51.003Z,5.65
2023-04-23T08:01:53.303Z,5.38
2023-04-23T08:02:55.226Z,5.60
2023-04-23T08:03:59.483Z,5.30
2023-04-23T08:05:01.580Z,5.90
2023-04-23T08:06:04.905Z,5.03
2023-04-23T08:07:06.638Z,5.43
2023-04-23T08:08:09.058Z,5.13
2023-04-23T08:09:10.829Z,5.93
2023-04-23T08:10:12.523Z,5.18
2023-04-23T08:11:14.311Z,5.75
2023-04-23T08:12:17.455Z,5.68
2023-04-23T08:13:19.548Z,5.32
2023-04-23T08:14:21.262Z,5.70
2023-04-23T08:15:23.010Z,5.93
2023-04-23T08:16:25.102Z,5.10
2023-04-23T08:17:26.914Z,5.63
2023-04-23T08:18:29.032Z,5.32
2023-04-23T08:19:33.712Z,5.63
2023-04-23T08:20:35.492Z,5.93
2023-04-23T08:21:37.465Z,5.28
2023-04-23T08:22:39.225Z,5.65
2023-04-23T08:23:41.020Z,5.65
2023-04-23T08:24:43.967Z,5.38
2023-04-23T08:25:45.802Z,5.15
2023-04-23T08:26:48.477Z,5.50
2023-04-23T08:27:50.286Z,4.95
2023-04-23T08:28:52.381Z,4.70
2023-04-23T08:29:54.090Z,5.05
2023-04-23T08:30:55.777Z,4.80
2023-04-23T08:31:57.742Z,5.00
2023-04-23T08:32:59.751Z,5.63
2023-04-23T08:34:01.494Z,5.40
2023-04-23T08:35:03.305Z,5.00
2023-04-23T08:36:05.170Z,5.15
2023-04-23T08:37:10.026Z,5.45
2023-04-23T08:38:15.757Z,5.60
2023-04-23T08:39:17.558Z,5.50
2023-04-23T08:40:19.398Z,5.20
2023-04-23T08:41:24.057Z,5.10
2023-04-23T08:42:46.963Z,5.43
2023-04-23T08:44:06.042Z,6.20
2023-04-23T08:45:08.218Z,5.43
2023-04-23T08:46:12.574Z,5.80
2023-04-23T08:47:18.087Z,5.10
2023-04-23T08:48:19.974Z,5.72
2023-04-23T08:49:21.931Z,5.30
2023-04-23T08:50:25.472Z,4.95
2023-04-23T08:51:31.119Z,4.68
2023-04-23T08:52:35.859Z,5.50
2023-04-23T08:53:39.937Z,4.20
2023-04-23T08:54:42.755Z,4.68
2023-04-23T08:55:46.015Z,4.65
2023-04-23T08:56:48.295Z,4.32
2023-04-23T08:57:51.235Z,4.18
2023-04-23T08:58:56.446Z,4.40
2023-04-23T08:59:59.825Z,3.95
2023-04-23T09:01:01.874Z,3.88
2023-04-23T09:02:10.034Z,4.13
2023-04-23T09:03:12.457Z,3.42
2023-04-23T09:04:17.156Z,3.13
2023-04-23T09:05:18.898Z,3.65
2023-04-23T09:06:21.837Z,3.30
2023-04-23T09:07:23.675Z,3.17
2023-04-23T09:08:25.480Z,3.42
2023-04-23T09:09:29.934Z,3.88
2023-04-23T09:10:32.708Z,3.90
2023-04-23T09:11:37.349Z,3.78
2023-04-23T09:12:41.700Z,3.60
2023-04-23T09:13:43.439Z,4.25
2023-04-23T09:14:45.292Z,3.88
2023-04-23T09:15:47.224Z,3.97
2023-04-23T09:16:48.976Z,3.60
2023-04-23T09:17:51.309Z,3.50
2023-04-23T09:18:54.204Z,4.13
2023-04-23T09:19:56.047Z,3.80
2023-04-23T09:20:57.884Z,4.03
2023-04-23T09:22:02.582Z,3.83
2023-04-23T09:23:08.205Z,3.83
2023-04-23T09:24:12.051Z,3.90
2023-04-23T09:25:18.931Z,3.67
2023-04-23T09:26:25.059Z,4.47
2023-04-23T09:27:26.917Z,3.60
2023-04-23T09:28:36.462Z,3.40
2023-04-23T09:29:38.185Z,3.80
2023-04-23T09:30:49.040Z,3.90
2023-04-23T09:32:06.595Z,3.97
2023-04-23T09:33:12.063Z,3.90
2023-04-23T09:34:20.569Z,4.10
2023-04-23T09:35:22.437Z,4.05
2023-04-23T09:36:28.225Z,3.50
2023-04-23T09:37:30.144Z,3.50
2023-04-23T09:38:34.390Z,4.03
2023-04-23T09:39:36.186Z,4.50
2023-04-23T09:40:37.980Z,4.07
2023-04-23T09:41:40.527Z,3.67
2023-04-23T09:42:49.724Z,3.50
2023-04-23T09:43:55.548Z,4.05
2023-04-23T09:45:00.435Z,6.00
2023-04-23T09:46:02.329Z,5.25
2023-04-23T09:47:28.843Z,5.13
2023-04-23T09:48:41.793Z,4.78
2023-04-23T09:49:50.538Z,4.57
2023-04-23T09:50:55.868Z,4.90
2023-04-23T09:52:07.320Z,4.35
2023-04-23T09:53:10.045Z,5.45
2023-04-23T09:54:23.710Z,4.18
2023-04-23T09:55:40.922Z,4.30
2023-04-23T09:56:43.566Z,3.20
2023-04-23T09:57:47.077Z,3.63
2023-04-23T09:58:48.791Z,3.65
2023-04-23T09:59:55.018Z,3.75
2023-04-23T10:01:08.962Z,4.05
2023-04-23T10:02:11.595Z,3.50
2023-04-23T10:03:13.726Z,3.60
2023-04-23T10:04:23.250Z,3.55
2023-04-23T10:05:31.318Z,3.20
2023-04-23T10:06:47.037Z,3.40
2023-04-23T10:07:59.384Z,3.88
2023-04-23T10:09:01.160Z,3.35
2023-04-23T10:10:02.875Z,3.30
2023-04-23T10:11:19.928Z,3.40
2023-04-23T10:12:39.698Z,3.10
2023-04-23T10:13:44.776Z,3.10
2023-04-23T10:14:49.597Z,3.40
2023-04-23T10:15:52.708Z,3.30
2023-04-23T10:17:05.353Z,3.20
2023-04-23T10:18:08.538Z,2.88
2023-04-23T10:19:14.725Z,3.40
2023-04-23T10:20:16.694Z,2.80
2023-04-23T10:21:20.060Z,2.90
2023-04-23T10:22:22.928Z,3.85
2023-04-23T10:23:25.369Z,2.72
2023-04-23T10:24:30.496Z,3.17
2023-04-23T10:25:32.812Z,2.83
2023-04-23T10:26:38.260Z,2.88
2023-04-23T10:27:52.691Z,3.00
2023-04-23T10:28:58.193Z,3.00
2023-04-23T10:30:01.260Z,3.25
2023-04-23T10:31:05.670Z,3.15
2023-04-23T10:32:07.655Z,2.70
2023-04-23T10:33:22.542Z,3.33
2023-04-23T10:34:32.791Z,3.30
2023-04-23T10:35:35.238Z,2.65
2023-04-23T10:36:39.953Z,3.38
2023-04-23T10:37:42.319Z,3.45
2023-04-23T10:38:56.798Z,3.53
2023-04-23T10:40:14.454Z,3.25
2023-04-23T10:41:19.660Z,3.05
2023-04-23T10:42:23.752Z,3.20
2023-04-23T10:43:25.777Z,3.15
2023-04-23T10:45:43.995Z,3.15
2023-04-23T10:46:57.866Z,3.42
2023-04-23T10:47:59.675Z,3.03
2023-04-23T10:49:16.444Z,3.05
2023-04-23T10:50:34.978Z,2.90
2023-04-23T10:52:43.491Z,2.70
2023-04-23T10:53:45.872Z,3.22
2023-04-23T10:54:58.159Z,2.75
2023-04-23T10:56:10.154Z,2.78
2023-04-23T10:57:11.886Z,2.80
2023-04-23T10:58:13.673Z,2.63
2023-04-23T10:59:22.000Z,2.90
2023-04-23T11:00:23.916Z,3.20
2023-04-23T11:01:30.383Z,2.60
2023-04-23T11:02:44.530Z,2.55
2023-04-23T11:03:48.193Z,2.05
2023-04-23T11:04:58.402Z,3.22
2023-04-23T11:06:04.932Z,2.50
2023-04-23T11:07:10.434Z,2.72
2023-04-23T11:08:19.253Z,2.90
2023-04-23T11:09:46.110Z,3.03
2023-04-23T11:10:59.713Z,2.75
2023-04-23T11:12:02.585Z,2.88
2023-04-23T11:13:25.123Z,2.92
2023-04-23T11:14:36.456Z,2.88
2023-04-23T11:15:38.336Z,2.75
2023-04-23T11:16:40.152Z,2.58
2023-04-23T11:17:44.648Z,2.80
2023-04-23T11:19:03.346Z,3.95
2023-04-23T11:20:13.830Z,2.72
2023-04-23T11:21:16.069Z,2.60
2023-04-23T11:22:20.527Z,2.65
2023-04-23T11:23:34.486Z,3.10
2023-04-23T11:24:42.509Z,2.90
2023-04-23T11:25:46.723Z,2.55
2023-04-23T11:26:51.668Z,2.63
2023-04-23T11:27:56.894Z,2.75
2023-04-23T11:28:58.985Z,3.15
2023-04-23T11:30:00.732Z,2.72
2023-04-23T11:31:03.231Z,2.80
2023-04-23T11:32:10.963Z,2.97
2023-04-23T11:33:12.828Z,2.80
2023-04-23T11:34:14.820Z,2.63
2023-04-23T11:35:18.096Z,2.80
2023-04-23T11:36:19.899Z,2.50
2023-04-23T11:37:21.773Z,2.40
2023-04-23T11:38:23.507Z,2.70
2023-04-23T11:39:25.921Z,2.85
2023-04-23T11:40:31.172Z,2.80
2023-04-23T11:41:32.913Z,2.88
2023-04-23T11:42:42.587Z,2.92
2023-04-23T11:43:44.280Z,3.10
2023-04-23T11:44:46.842Z,2.95
2023-04-23T11:45:49.377Z,2.85
2023-04-23T11:46:51.245Z,2.65
2023-04-23T11:47:57.943Z,3.33
2023-04-23T11:49:01.171Z,2.92
2023-04-23T11:50:02.989Z,2.72
2023-04-23T11:51:04.803Z,2.78
2023-04-23T11:52:06.938Z,2.80
2023-04-23T11:53:10.552Z,2.97
2023-04-23T11:54:13.894Z,3.20
2023-04-23T11:55:16.888Z,3.00
2023-04-23T11:56:19.002Z,2.80
2023-04-23T11:57:21.870Z,2.70
2023-04-23T11:58:23.556Z,2.60
2023-04-23T11:59:25.726Z,3.00
2023-04-23T12:00:27.529Z,3.00
2023-04-23T12:01:43.333Z,3.03
2023-04-23T12:03:01.115Z,3.00
2023-04-23T12:04:13.699Z,2.40
2023-04-23T12:05:15.637Z,2.75
2023-04-23T12:06:19.071Z,2.97
2023-04-23T12:07:32.094Z,2.80
2023-04-23T12:08:40.462Z,3.22
2023-04-23T12:09:42.503Z,2.83
2023-04-23T12:10:45.377Z,3.17
2023-04-23T12:11:47.789Z,3.33
2023-04-23T12:12:53.326Z,3.17
2023-04-23T12:13:55.074Z,3.58
2023-04-23T12:15:04.824Z,3.35
2023-04-23T12:16:07.571Z,3.10
2023-04-23T12:17:11.671Z,3.40
2023-04-23T12:18:13.496Z,3.00
2023-04-23T12:19:17.775Z,3.17
2023-04-23T12:20:21.293Z,2.70
2023-04-23T12:21:24.682Z,2.45
2023-04-23T12:22:28.498Z,2.60
2023-04-23T12:23:30.336Z,2.58
2023-04-23T12:24:46.782Z,3.40
2023-04-23T12:25:48.504Z,2.60
2023-04-23T12:26:54.655Z,3.33
2023-04-23T12:28:00.383Z,3.00
2023-04-23T12:29:02.202Z,2.67
2023-04-23T12:30:06.611Z,2.67
2023-04-23T12:31:09.202Z,2.90
2023-04-23T12:32:12.300Z,3.00
2023-04-23T12:33:14.088Z,3.03
2023-04-23T12:34:17.618Z,3.03
2023-04-23T12:35:19.428Z,3.00
2023-04-23T12:36:21.149Z,3.10
2023-04-23T12:37:30.157Z,2.90
2023-04-23T12:38:32.001Z,3.50
2023-04-23T12:39:35.497Z,3.20
2023-04-23T12:40:37.203Z,3.22
2023-04-23T12:41:38.999Z,3.20
2023-04-23T12:42:40.733Z,3.10
2023-04-23T12:43:42.461Z,3.10
2023-04-23T12:44:44.336Z,3.30
2023-04-23T12:45:46.092Z,3.25
2023-04-23T12:46:57.760Z,3.30
2023-04-23T12:47:59.854Z,3.15
2023-04-23T12:49:01.592Z,3.08
2023-04-23T12:50:05.844Z,3.30
2023-04-23T12:51:07.914Z,3.45
2023-04-23T12:52:11.519Z,2.95
2023-04-23T12:53:15.605Z,2.83
2023-04-23T12:54:17.360Z,3.00
2023-04-23T12:55:19.162Z,3.28
2023-04-23T12:56:21.067Z,3.20
2023-04-23T12:57:23.547Z,3.10
2023-04-23T12:58:27.995Z,2.90
2023-04-23T12:59:30.736Z,3.28
2023-04-23T13:00:33.415Z,3.17
2023-04-23T13:01:35.317Z,3.10
2023-04-23T13:02:37.186Z,2.75
2023-04-23T13:03:39.023Z,3.20
2023-04-23T13:04:40.907Z,3.10
2023-04-23T13:05:42.603Z,3.00
2023-04-23T13:06:44.360Z,3.15
2023-04-23T13:07:46.197Z,2.70
2023-04-23T13:08:47.889Z,3.15
2023-04-23T13:09:49.586Z,3.20
2023-04-23T13:10:51.351Z,3.03
2023-04-23T13:11:53.062Z,3.33
2023-04-23T13:12:54.738Z,3.25
2023-04-23T13:13:56.442Z,2.92
2023-04-23T13:14:58.666Z,3.15
2023-04-23T13:16:00.534Z,3.00
2023-04-23T13:17:02.284Z,3.00
2023-04-23T13:18:04.160Z,3.00
2023-04-23T13:19:05.928Z,3.30
2023-04-23T13:20:09.120Z,2.60
2023-04-23T13:21:11.110Z,2.60
2023-04-23T13:22:12.836Z,2.70
2023-04-23T13:23:14.635Z,2.70
2023-04-23T13:24:16.513Z,3.05
2023-04-23T13:25:18.220Z,2.75
2023-04-23T13:26:19.990Z,3.45
2023-04-23T13:27:21.731Z,3.13
2023-04-23T13:28:23.453Z,6.75
2023-04-23T13:29:27.454Z,6.35
2023-04-23T13:30:29.228Z,4.05
2023-04-23T13:31:31.594Z,3.92
2023-04-23T13:32:33.552Z,5.13
2023-04-23T13:33:35.387Z,6.13
2023-04-23T13:34:37.157Z,5.68
2023-04-23T13:35:38.976Z,4.35
2023-04-23T13:36:43.445Z,2.90
2023-04-23T13:37:45.199Z,2.95
2023-04-23T13:38:47.840Z,3.10
2023-04-23T13:39:49.560Z,2.80
2023-04-23T13:40:51.293Z,2.65
2023-04-23T13:42:02.748Z,2.42
2023-04-23T13:43:10.969Z,3.20
2023-04-23T13:44:14.019Z,2.70
2023-04-23T13:45:16.244Z,2.45
2023-04-23T13:46:19.830Z,2.65
2023-04-23T13:47:21.927Z,2.42
2023-04-23T13:48:28.650Z,2.40
2023-04-23T13:49:30.427Z,2.60
2023-04-23T13:50:32.157Z,2.85
2023-04-23T13:51:35.644Z,2.47
2023-04-23T13:52:39.374Z,2.95
2023-04-23T13:53:41.097Z,2.85
2023-04-23T13:54:42.855Z,2.85
2023-04-23T13:55:44.576Z,3.00
2023-04-23T13:56:47.185Z,2.67
2023-04-23T13:57:48.902Z,2.65
2023-04-23T13:58:53.113Z,2.67
2023-04-23T13:59:55.598Z,2.90
2023-04-23T14:00:57.321Z,2.60
2023-04-23T14:01:59.066Z,2.72
2023-04-23T14:03:00.911Z,2.70
2023-04-23T14:04:04.482Z,2.97